sensor_id;sensor_type;location;lat;lon;timestamp;pressure;altitude;pressure_sealevel;temperature;humidity
63665;BME280;49820;33.966;73.390;2023-02-12T02:50:56;78893.00;;;1.62;33.03
63665;BME280;49820;33.966;73.390;2023-02-12T02:53:36;78894.53;;;2.04;31.28
63665;BME280;49820;33.966;73.390;2023-02-12T02:56:08;78894.00;;;2.25;30.65
63665;BME280;49820;33.966;73.390;2023-02-12T02:58:47;78894.06;;;2.46;30.45
63665;BME280;49820;33.966;73.390;2023-02-12T03:01:27;78888.25;;;2.78;30.23
63665;BME280;49820;33.966;73.390;2023-02-12T03:04:07;78906.75;;;2.92;29.21
63665;BME280;49820;33.966;73.390;2023-02-12T03:06:55;78898.91;;;3.22;29.38
63665;BME280;49820;33.966;73.390;2023-02-12T03:09:52;78883.03;;;3.18;34.34
63665;BME280;49820;33.966;73.390;2023-02-12T03:23:27;78902.22;;;3.65;40.23
63665;BME280;49820;33.966;73.390;2023-02-12T03:26:08;78920.72;;;3.55;41.47
63665;BME280;49820;33.966;73.390;2023-02-12T03:28:40;78908.16;;;3.82;42.41
63665;BME280;49820;33.966;73.390;2023-02-12T03:31:38;78913.44;;;4.18;38.61
63665;BME280;49820;33.966;73.390;2023-02-12T03:37:02;78922.03;;;3.93;39.66
63665;BME280;49820;33.966;73.390;2023-02-12T03:39:51;78929.28;;;3.82;42.31
63665;BME280;49820;33.966;73.390;2023-02-12T03:43:05;78927.34;;;3.89;44.19
63665;BME280;49820;33.966;73.390;2023-02-12T03:45:59;78916.75;;;3.87;43.66
63665;BME280;49820;33.966;73.390;2023-02-12T03:48:45;78920.69;;;3.90;45.84
63665;BME280;49820;33.966;73.390;2023-02-12T03:51:43;78927.28;;;4.37;45.92
63665;BME280;49820;33.966;73.390;2023-02-12T03:54:16;78935.13;;;4.76;44.81
63665;BME280;49820;33.966;73.390;2023-02-12T03:56:54;78938.44;;;4.76;44.28
63665;BME280;49820;33.966;73.390;2023-02-12T03:59:25;78915.91;;;4.91;43.80
63665;BME280;49820;33.966;73.390;2023-02-12T04:01:57;78941.47;;;5.50;44.70
63665;BME280;49820;33.966;73.390;2023-02-12T04:04:27;78933.09;;;4.88;44.20
63665;BME280;49820;33.966;73.390;2023-02-12T04:06:57;78933.06;;;4.96;45.22
63665;BME280;49820;33.966;73.390;2023-02-12T04:09:26;78925.69;;;5.19;44.49
63665;BME280;49820;33.966;73.390;2023-02-12T04:12:08;78959.56;;;4.88;43.83
63665;BME280;49820;33.966;73.390;2023-02-12T04:23:45;78982.13;;;4.47;45.71
63665;BME280;49820;33.966;73.390;2023-02-12T04:28:57;78970.28;;;4.19;47.17
63665;BME280;49820;33.966;73.390;2023-02-12T04:31:53;78990.09;;;4.06;48.24
63665;BME280;49820;33.966;73.390;2023-02-12T04:34:43;78997.38;;;4.10;48.09
63665;BME280;49820;33.966;73.390;2023-02-12T04:37:20;79002.66;;;4.14;47.35
63665;BME280;49820;33.966;73.390;2023-02-12T04:39:53;79008.63;;;4.20;48.45
63665;BME280;49820;33.966;73.390;2023-02-12T04:42:22;79001.34;;;3.97;49.66
63665;BME280;49820;33.966;73.390;2023-02-12T04:44:51;79000.00;;;4.24;47.25
63665;BME280;49820;33.966;73.390;2023-02-12T04:47:20;79021.81;;;4.47;47.05
63665;BME280;49820;33.966;73.390;2023-02-12T04:49:49;79015.84;;;3.94;45.74
63665;BME280;49820;33.966;73.390;2023-02-12T05:27:24;79023.81;;;4.26;41.92
63665;BME280;49820;33.966;73.390;2023-02-12T05:29:54;79054.91;;;4.62;41.08
63665;BME280;49820;33.966;73.390;2023-02-12T05:32:24;79037.03;;;4.75;43.01
63665;BME280;49820;33.966;73.390;2023-02-12T05:34:54;79015.16;;;4.96;43.35
63665;BME280;49820;33.966;73.390;2023-02-12T05:37:24;79044.88;;;5.25;43.60
63665;BME280;49820;33.966;73.390;2023-02-12T05:39:55;79026.25;;;5.50;44.08
63665;BME280;49820;33.966;73.390;2023-02-12T05:42:23;79037.41;;;5.83;41.39
63665;BME280;49820;33.966;73.390;2023-02-12T05:44:53;79047.19;;;6.19;43.04
63665;BME280;49820;33.966;73.390;2023-02-12T05:47:23;79034.44;;;6.41;43.44
63665;BME280;49820;33.966;73.390;2023-02-12T05:49:52;79031.03;;;6.57;42.41
63665;BME280;49820;33.966;73.390;2023-02-12T05:52:22;79046.94;;;6.63;42.50
63665;BME280;49820;33.966;73.390;2023-02-12T05:54:51;79053.78;;;7.21;42.15
63665;BME280;49820;33.966;73.390;2023-02-12T05:57:20;79046.31;;;7.40;39.46
63665;BME280;49820;33.966;73.390;2023-02-12T05:59:49;79061.78;;;7.17;38.59
63665;BME280;49820;33.966;73.390;2023-02-12T06:02:18;79043.16;;;7.21;41.08
63665;BME280;49820;33.966;73.390;2023-02-12T06:04:48;79028.19;;;7.57;40.57
63665;BME280;49820;33.966;73.390;2023-02-12T06:07:17;79037.56;;;8.15;39.70
63665;BME280;49820;33.966;73.390;2023-02-12T06:09:46;79049.22;;;8.43;38.24
63665;BME280;49820;33.966;73.390;2023-02-12T06:12:16;79051.59;;;8.67;35.78
63665;BME280;49820;33.966;73.390;2023-02-12T06:14:45;79054.00;;;8.85;38.70
63665;BME280;49820;33.966;73.390;2023-02-12T06:17:15;79043.00;;;9.09;38.24
63665;BME280;49820;33.966;73.390;2023-02-12T06:19:44;79046.13;;;9.24;36.91
63665;BME280;49820;33.966;73.390;2023-02-12T06:22:13;79056.06;;;9.28;35.37
63665;BME280;49820;33.966;73.390;2023-02-12T06:24:42;79047.59;;;9.58;35.57
63665;BME280;49820;33.966;73.390;2023-02-12T06:27:15;79049.53;;;9.18;34.15
63665;BME280;49820;33.966;73.390;2023-02-12T06:29:44;79046.78;;;9.68;34.86
63665;BME280;49820;33.966;73.390;2023-02-12T06:32:13;79051.66;;;10.35;32.82
63665;BME280;49820;33.966;73.390;2023-02-12T06:34:42;79048.44;;;10.63;32.90
63665;BME280;49820;33.966;73.390;2023-02-12T06:37:11;79039.22;;;10.91;32.45
63665;BME280;49820;33.966;73.390;2023-02-12T06:39:40;79038.53;;;11.24;33.54
63665;BME280;49820;33.966;73.390;2023-02-12T06:42:09;79035.78;;;12.70;29.81
63665;BME280;49820;33.966;73.390;2023-02-12T06:44:39;79036.09;;;12.83;31.58
63665;BME280;49820;33.966;73.390;2023-02-12T06:47:08;79030.50;;;13.18;29.07
63665;BME280;49820;33.966;73.390;2023-02-12T06:49:36;79020.75;;;11.72;30.35
63665;BME280;49820;33.966;73.390;2023-02-12T06:52:07;79010.56;;;11.50;30.78
63665;BME280;49820;33.966;73.390;2023-02-12T06:54:36;79021.31;;;11.76;28.77
63665;BME280;49820;33.966;73.390;2023-02-12T06:57:05;79039.75;;;12.71;29.63
63665;BME280;49820;33.966;73.390;2023-02-12T06:59:36;79019.31;;;11.77;27.41
63665;BME280;49820;33.966;73.390;2023-02-12T07:02:09;79028.50;;;11.84;27.92
63665;BME280;49820;33.966;73.390;2023-02-12T07:04:39;79034.25;;;11.97;30.08
63665;BME280;49820;33.966;73.390;2023-02-12T07:07:08;79025.44;;;11.71;31.02
63665;BME280;49820;33.966;73.390;2023-02-12T07:09:38;79029.97;;;10.86;29.40
63665;BME280;49820;33.966;73.390;2023-02-12T07:12:07;79002.09;;;11.39;27.53
63665;BME280;49820;33.966;73.390;2023-02-12T07:14:36;79017.47;;;11.38;28.08
63665;BME280;49820;33.966;73.390;2023-02-12T07:17:06;79013.63;;;10.67;28.77
63665;BME280;49820;33.966;73.390;2023-02-12T07:19:37;79023.88;;;10.90;26.85
63665;BME280;49820;33.966;73.390;2023-02-12T07:22:06;79010.06;;;12.28;27.76
63665;BME280;49820;33.966;73.390;2023-02-12T07:24:35;79023.50;;;12.26;27.81
63665;BME280;49820;33.966;73.390;2023-02-12T07:27:06;79005.41;;;11.11;27.74
63665;BME280;49820;33.966;73.390;2023-02-12T07:29:36;79006.16;;;11.67;27.46
63665;BME280;49820;33.966;73.390;2023-02-12T07:32:05;79013.53;;;12.49;28.12
63665;BME280;49820;33.966;73.390;2023-02-12T07:34:34;78993.13;;;12.60;27.44
63665;BME280;49820;33.966;73.390;2023-02-12T07:37:03;78998.06;;;12.24;29.21
63665;BME280;49820;33.966;73.390;2023-02-12T07:39:34;78994.88;;;12.18;27.38
63665;BME280;49820;33.966;73.390;2023-02-12T07:42:04;79004.97;;;11.89;27.59
63665;BME280;49820;33.966;73.390;2023-02-12T07:44:33;78994.94;;;12.92;28.65
63665;BME280;49820;33.966;73.390;2023-02-12T07:47:02;78994.75;;;12.49;27.83
63665;BME280;49820;33.966;73.390;2023-02-12T07:49:33;79010.13;;;13.02;27.29
63665;BME280;49820;33.966;73.390;2023-02-12T07:52:02;78999.00;;;12.67;28.13
63665;BME280;49820;33.966;73.390;2023-02-12T07:54:31;78991.34;;;13.02;28.49
63665;BME280;49820;33.966;73.390;2023-02-12T07:57:00;79002.06;;;13.27;27.35
63665;BME280;49820;33.966;73.390;2023-02-12T07:59:29;78977.88;;;14.39;26.92
63665;BME280;49820;33.966;73.390;2023-02-12T08:01:59;78999.22;;;13.79;26.70
63665;BME280;49820;33.966;73.390;2023-02-12T08:04:28;78972.34;;;12.60;26.73
63665;BME280;49820;33.966;73.390;2023-02-12T08:06:58;78982.06;;;13.90;26.83
63665;BME280;49820;33.966;73.390;2023-02-12T08:09:31;78979.00;;;14.46;27.83
63665;BME280;49820;33.966;73.390;2023-02-12T08:12:00;78973.81;;;13.96;25.31
63665;BME280;49820;33.966;73.390;2023-02-12T08:14:30;78970.69;;;11.95;27.64
63665;BME280;49820;33.966;73.390;2023-02-12T08:17:00;78976.97;;;13.36;27.53
63665;BME280;49820;33.966;73.390;2023-02-12T08:19:30;78987.84;;;12.83;28.13
63665;BME280;49820;33.966;73.390;2023-02-12T08:21:59;78965.69;;;12.59;27.40
63665;BME280;49820;33.966;73.390;2023-02-12T08:24:31;78965.88;;;13.49;28.07
63665;BME280;49820;33.966;73.390;2023-02-12T08:27:01;78980.78;;;12.71;28.34
63665;BME280;49820;33.966;73.390;2023-02-12T08:29:31;78983.63;;;13.15;27.93
63665;BME280;49820;33.966;73.390;2023-02-12T08:32:01;78988.28;;;13.39;27.85
63665;BME280;49820;33.966;73.390;2023-02-12T08:34:35;78971.06;;;13.55;28.75
63665;BME280;49820;33.966;73.390;2023-02-12T08:37:05;78957.44;;;14.87;25.42
63665;BME280;49820;33.966;73.390;2023-02-12T08:39:35;78989.84;;;15.62;26.92
63665;BME280;49820;33.966;73.390;2023-02-12T08:42:04;78944.53;;;15.86;26.29
63665;BME280;49820;33.966;73.390;2023-02-12T08:44:33;78965.56;;;14.67;26.37
63665;BME280;49820;33.966;73.390;2023-02-12T08:47:03;78945.56;;;13.08;27.13
63665;BME280;49820;33.966;73.390;2023-02-12T08:49:34;78973.66;;;13.80;27.58
63665;BME280;49820;33.966;73.390;2023-02-12T08:52:04;78829.56;;;12.87;27.02
63665;BME280;49820;33.966;73.390;2023-02-12T08:54:34;78958.56;;;12.99;28.70
63665;BME280;49820;33.966;73.390;2023-02-12T08:57:04;78959.75;;;13.96;28.40
63665;BME280;49820;33.966;73.390;2023-02-12T08:59:33;78949.69;;;15.17;26.25
63665;BME280;49820;33.966;73.390;2023-02-12T09:02:02;78926.63;;;14.45;27.18
63665;BME280;49820;33.966;73.390;2023-02-12T09:04:36;78942.03;;;13.61;27.98
63665;BME280;49820;33.966;73.390;2023-02-12T09:07:05;78951.25;;;14.31;28.31
63665;BME280;49820;33.966;73.390;2023-02-12T09:09:37;78950.03;;;14.88;26.90
63665;BME280;49820;33.966;73.390;2023-02-12T09:12:06;78947.31;;;15.46;26.30
63665;BME280;49820;33.966;73.390;2023-02-12T09:14:35;78929.47;;;15.18;25.59
63665;BME280;49820;33.966;73.390;2023-02-12T09:17:04;78956.69;;;14.70;27.19
63665;BME280;49820;33.966;73.390;2023-02-12T09:19:34;78947.13;;;14.55;27.28
63665;BME280;49820;33.966;73.390;2023-02-12T09:22:05;78948.66;;;14.89;27.91
63665;BME280;49820;33.966;73.390;2023-02-12T09:24:36;78951.22;;;13.89;28.61
63665;BME280;49820;33.966;73.390;2023-02-12T09:27:05;78970.44;;;12.82;28.43
63665;BME280;49820;33.966;73.390;2023-02-12T09:29:34;78940.66;;;11.06;29.61
63665;BME280;49820;33.966;73.390;2023-02-12T09:32:03;78954.28;;;11.25;30.31
63665;BME280;49820;33.966;73.390;2023-02-12T09:34:35;78959.19;;;10.52;30.62
63665;BME280;49820;33.966;73.390;2023-02-12T09:37:05;78965.50;;;10.00;31.62
63665;BME280;49820;33.966;73.390;2023-02-12T09:39:35;78976.19;;;10.37;32.38
63665;BME280;49820;33.966;73.390;2023-02-12T09:42:31;78964.94;;;10.30;31.38
63665;BME280;49820;33.966;73.390;2023-02-12T09:45:16;78948.28;;;10.29;31.37
63665;BME280;49820;33.966;73.390;2023-02-12T09:47:59;78954.41;;;10.22;31.78
63665;BME280;49820;33.966;73.390;2023-02-12T09:50:47;78952.53;;;9.79;31.53
63665;BME280;49820;33.966;73.390;2023-02-12T09:53:26;78946.19;;;10.34;32.36
63665;BME280;49820;33.966;73.390;2023-02-12T09:55:58;78946.47;;;10.20;32.80
63665;BME280;49820;33.966;73.390;2023-02-12T09:58:44;78947.16;;;10.84;31.31
63665;BME280;49820;33.966;73.390;2023-02-12T10:01:18;78963.44;;;11.03;31.83
63665;BME280;49820;33.966;73.390;2023-02-12T10:03:50;78921.34;;;10.73;31.46
63665;BME280;49820;33.966;73.390;2023-02-12T10:06:26;78962.22;;;10.98;31.25
63665;BME280;49820;33.966;73.390;2023-02-12T10:23:13;78962.22;;;11.58;31.40
63665;BME280;49820;33.966;73.390;2023-02-12T10:26:24;78953.94;;;10.46;30.64
63665;BME280;49820;33.966;73.390;2023-02-12T10:28:54;78956.53;;;10.83;31.28
63665;BME280;49820;33.966;73.390;2023-02-12T10:31:34;78948.97;;;9.91;32.58
63665;BME280;49820;33.966;73.390;2023-02-12T10:34:18;78949.91;;;9.40;32.79
63665;BME280;49820;33.966;73.390;2023-02-12T10:36:53;78943.69;;;9.89;32.80
63665;BME280;49820;33.966;73.390;2023-02-12T10:39:40;78955.03;;;10.59;32.63
63665;BME280;49820;33.966;73.390;2023-02-12T10:42:20;78971.28;;;10.80;29.23
63665;BME280;49820;33.966;73.390;2023-02-12T10:44:54;78963.78;;;9.84;31.75
63665;BME280;49820;33.966;73.390;2023-02-12T10:47:23;78952.88;;;9.59;32.36
63665;BME280;49820;33.966;73.390;2023-02-12T10:49:59;78962.53;;;10.18;31.77
63665;BME280;49820;33.966;73.390;2023-02-12T10:55:33;78968.72;;;10.06;31.71
63665;BME280;49820;33.966;73.390;2023-02-12T10:58:04;78972.47;;;9.45;31.93
63665;BME280;49820;33.966;73.390;2023-02-12T11:00:35;78980.19;;;9.23;32.73
63665;BME280;49820;33.966;73.390;2023-02-12T11:03:19;78984.91;;;9.18;32.55
63665;BME280;49820;33.966;73.390;2023-02-12T11:05:49;78991.00;;;9.12;32.84
63665;BME280;49820;33.966;73.390;2023-02-12T11:08:35;78996.53;;;7.96;34.86
63665;BME280;49820;33.966;73.390;2023-02-12T11:11:20;78997.13;;;8.56;34.41
63665;BME280;49820;33.966;73.390;2023-02-12T11:14:13;78983.25;;;8.96;33.04
63665;BME280;49820;33.966;73.390;2023-02-12T11:16:59;79002.13;;;8.31;33.19
63665;BME280;49820;33.966;73.390;2023-02-12T11:19:31;78990.03;;;8.87;32.54
63665;BME280;49820;33.966;73.390;2023-02-12T11:22:09;78979.53;;;9.20;30.06
63665;BME280;49820;33.966;73.390;2023-02-12T11:24:46;78990.78;;;9.25;31.67
63665;BME280;49820;33.966;73.390;2023-02-12T11:27:29;78991.69;;;9.11;32.91
63665;BME280;49820;33.966;73.390;2023-02-12T11:30:15;78993.38;;;8.38;32.93
63665;BME280;49820;33.966;73.390;2023-02-12T11:32:45;78990.09;;;8.83;31.88
63665;BME280;49820;33.966;73.390;2023-02-12T11:35:48;78979.41;;;8.38;32.00
63665;BME280;49820;33.966;73.390;2023-02-12T11:38:48;79002.66;;;8.41;31.56
63665;BME280;49820;33.966;73.390;2023-02-12T11:41:40;79001.75;;;8.04;30.42
63665;BME280;49820;33.966;73.390;2023-02-12T11:44:34;78979.59;;;7.64;34.20
63665;BME280;49820;33.966;73.390;2023-02-12T11:47:17;78976.34;;;7.58;33.57
63665;BME280;49820;33.966;73.390;2023-02-12T11:50:07;78985.16;;;7.42;35.45
63665;BME280;49820;33.966;73.390;2023-02-12T11:52:37;79018.94;;;6.78;35.12
63665;BME280;49820;33.966;73.390;2023-02-12T11:55:22;78996.50;;;6.57;35.68
63665;BME280;49820;33.966;73.390;2023-02-12T11:58:14;78982.28;;;6.05;37.44
63665;BME280;49820;33.966;73.390;2023-02-12T12:09:24;79025.78;;;4.86;42.99
63665;BME280;49820;33.966;73.390;2023-02-12T12:12:03;79022.50;;;4.25;42.84
63665;BME280;49820;33.966;73.390;2023-02-12T12:20:52;79005.22;;;3.45;47.28
63665;BME280;49820;33.966;73.390;2023-02-12T12:23:38;79031.53;;;3.19;48.80
63665;BME280;49820;33.966;73.390;2023-02-12T12:26:19;79028.19;;;3.06;48.20
63665;BME280;49820;33.966;73.390;2023-02-12T12:34:24;79027.44;;;2.87;49.51
63665;BME280;49820;33.966;73.390;2023-02-12T12:51:46;79009.81;;;2.03;43.66
63665;BME280;49820;33.966;73.390;2023-02-12T12:54:49;79006.22;;;1.62;42.18
63665;BME280;49820;33.966;73.390;2023-02-12T13:02:49;79033.28;;;1.69;40.98
63665;BME280;49820;33.966;73.390;2023-02-12T13:11:20;79021.09;;;1.33;43.89
63665;BME280;49820;33.966;73.390;2023-02-12T13:14:00;79033.56;;;1.29;41.72
63665;BME280;49820;33.966;73.390;2023-02-12T13:16:46;79028.69;;;1.01;42.76
63665;BME280;49820;33.966;73.390;2023-02-12T13:19:36;78990.13;;;0.61;41.76
63665;BME280;49820;33.966;73.390;2023-02-12T13:22:56;79027.41;;;1.04;39.50
63665;BME280;49820;33.966;73.390;2023-02-12T13:31:07;79029.69;;;0.71;39.84
63665;BME280;49820;33.966;73.390;2023-02-12T13:34:01;79060.25;;;1.01;39.34
63665;BME280;49820;33.966;73.390;2023-02-12T13:36:35;79040.84;;;0.70;39.33
63665;BME280;49820;33.966;73.390;2023-02-12T13:44:53;79093.06;;;0.94;39.25
63665;BME280;49820;33.966;73.390;2023-02-12T13:50:23;79104.63;;;0.72;41.73
63665;BME280;49820;33.966;73.390;2023-02-12T13:56:18;79115.19;;;0.76;42.33
63665;BME280;49820;33.966;73.390;2023-02-12T13:58:55;79090.78;;;0.70;43.50
63665;BME280;49820;33.966;73.390;2023-02-12T14:04:27;79110.44;;;0.63;39.98
63665;BME280;49820;33.966;73.390;2023-02-12T14:07:07;79100.88;;;0.37;41.69
63665;BME280;49820;33.966;73.390;2023-02-12T14:09:43;79083.19;;;0.40;42.17
63665;BME280;49820;33.966;73.390;2023-02-12T14:12:26;79108.59;;;0.75;37.95
63665;BME280;49820;33.966;73.390;2023-02-12T14:15:18;79097.41;;;0.75;38.85
63665;BME280;49820;33.966;73.390;2023-02-12T14:17:55;79100.69;;;0.73;37.02
63665;BME280;49820;33.966;73.390;2023-02-12T14:20:35;79106.44;;;0.60;37.02
63665;BME280;49820;33.966;73.390;2023-02-12T14:23:27;79116.19;;;0.51;37.00
63665;BME280;49820;33.966;73.390;2023-02-12T14:26:14;79114.13;;;0.46;36.80
63665;BME280;49820;33.966;73.390;2023-02-12T14:28:53;79087.19;;;0.45;36.33
63665;BME280;49820;33.966;73.390;2023-02-12T14:36:38;79094.63;;;0.61;36.83
63665;BME280;49820;33.966;73.390;2023-02-12T14:41:53;79097.94;;;0.65;36.08
63665;BME280;49820;33.966;73.390;2023-02-12T14:46:58;79076.47;;;0.29;37.12
63665;BME280;49820;33.966;73.390;2023-02-12T14:49:48;79116.91;;;0.58;36.02
63665;BME280;49820;33.966;73.390;2023-02-12T14:52:26;79114.19;;;0.50;36.88
63665;BME280;49820;33.966;73.390;2023-02-12T14:55:04;79108.34;;;0.55;36.36
63665;BME280;49820;33.966;73.390;2023-02-12T14:57:39;79107.66;;;0.53;36.35
63665;BME280;49820;33.966;73.390;2023-02-12T15:03:19;79107.69;;;0.09;37.58
63665;BME280;49820;33.966;73.390;2023-02-12T15:06:01;79117.28;;;-0.10;39.29
63665;BME280;49820;33.966;73.390;2023-02-12T15:11:24;79118.00;;;-0.06;40.28
63665;BME280;49820;33.966;73.390;2023-02-12T15:21:59;79130.09;;;-0.30;40.33
63665;BME280;49820;33.966;73.390;2023-02-12T15:24:28;79123.50;;;-0.31;39.54
63665;BME280;49820;33.966;73.390;2023-02-12T15:26:58;79062.59;;;-0.68;39.55
63665;BME280;49820;33.966;73.390;2023-02-12T15:29:51;79098.34;;;-0.47;40.24
63665;BME280;49820;33.966;73.390;2023-02-12T15:32:27;79142.25;;;-0.07;40.27
63665;BME280;49820;33.966;73.390;2023-02-12T15:34:58;79108.59;;;-0.21;39.37
63665;BME280;49820;33.966;73.390;2023-02-12T15:37:28;79126.59;;;-0.03;39.06
63665;BME280;49820;33.966;73.390;2023-02-12T15:40:02;79106.78;;;-0.10;39.23
63665;BME280;49820;33.966;73.390;2023-02-12T15:42:35;79136.66;;;0.13;39.33
63665;BME280;49820;33.966;73.390;2023-02-12T15:47:46;79126.59;;;-0.03;39.10
63665;BME280;49820;33.966;73.390;2023-02-12T15:50:23;79133.88;;;0.03;39.95
63665;BME280;49820;33.966;73.390;2023-02-12T15:52:54;79127.19;;;-0.07;40.37
63665;BME280;49820;33.966;73.390;2023-02-12T15:55:26;79119.97;;;-0.06;39.27
63665;BME280;49820;33.966;73.390;2023-02-12T15:57:58;79146.41;;;0.06;39.01
63665;BME280;49820;33.966;73.390;2023-02-12T16:03:04;79101.84;;;-0.32;38.66
63665;BME280;49820;33.966;73.390;2023-02-12T16:05:34;79135.75;;;-0.04;38.07
63665;BME280;49820;33.966;73.390;2023-02-12T16:08:03;79133.72;;;-0.08;38.97
63665;BME280;49820;33.966;73.390;2023-02-12T16:10:42;79086.19;;;-0.26;37.76
63665;BME280;49820;33.966;73.390;2023-02-12T16:13:18;79151.34;;;0.28;37.88
63665;BME280;49820;33.966;73.390;2023-02-12T16:16:24;79144.63;;;0.19;37.71
63665;BME280;49820;33.966;73.390;2023-02-12T16:19:12;79153.25;;;0.25;37.32
63665;BME280;49820;33.966;73.390;2023-02-12T16:21:46;79154.97;;;0.09;38.39
63665;BME280;49820;33.966;73.390;2023-02-12T16:24:24;79152.34;;;0.09;37.97
63665;BME280;49820;33.966;73.390;2023-02-12T16:26:56;79170.19;;;0.14;38.74
63665;BME280;49820;33.966;73.390;2023-02-12T16:29:28;79160.94;;;0.11;38.00
63665;BME280;49820;33.966;73.390;2023-02-12T16:32:01;79173.34;;;0.07;38.54
63665;BME280;49820;33.966;73.390;2023-02-12T16:34:35;79144.63;;;-0.23;38.74
63665;BME280;49820;33.966;73.390;2023-02-12T16:50:55;79135.28;;;0.10;37.18
63665;BME280;49820;33.966;73.390;2023-02-12T16:53:32;79156.41;;;0.16;37.61
63665;BME280;49820;33.966;73.390;2023-02-12T16:56:03;79153.72;;;0.12;38.31
63665;BME280;49820;33.966;73.390;2023-02-12T16:58:33;79120.34;;;-0.26;38.80
63665;BME280;49820;33.966;73.390;2023-02-12T17:01:03;79112.19;;;-0.42;39.95
63665;BME280;49820;33.966;73.390;2023-02-12T17:03:33;79143.19;;;0.10;39.34
63665;BME280;49820;33.966;73.390;2023-02-12T17:06:03;79126.63;;;0.01;39.64
63665;BME280;49820;33.966;73.390;2023-02-12T17:08:32;79142.63;;;0.17;38.13
63665;BME280;49820;33.966;73.390;2023-02-12T17:11:01;79103.66;;;-0.01;37.16
63665;BME280;49820;33.966;73.390;2023-02-12T17:13:31;79145.09;;;0.05;36.75
63665;BME280;49820;33.966;73.390;2023-02-12T17:16:01;79132.56;;;0.02;36.48
63665;BME280;49820;33.966;73.390;2023-02-12T17:18:30;79146.03;;;0.24;35.89
63665;BME280;49820;33.966;73.390;2023-02-12T17:23:51;79146.78;;;0.30;35.32
63665;BME280;49820;33.966;73.390;2023-02-12T17:26:24;79123.47;;;0.09;35.27
63665;BME280;49820;33.966;73.390;2023-02-12T17:28:55;79127.53;;;0.16;35.24
63665;BME280;49820;33.966;73.390;2023-02-12T17:31:34;79138.03;;;0.18;34.75
63665;BME280;49820;33.966;73.390;2023-02-12T17:34:04;79120.19;;;0.10;34.22
63665;BME280;49820;33.966;73.390;2023-02-12T17:36:33;79134.00;;;0.11;34.32
63665;BME280;49820;33.966;73.390;2023-02-12T17:39:05;79137.38;;;0.15;33.98
63665;BME280;49820;33.966;73.390;2023-02-12T17:41:34;79151.44;;;0.36;33.74
63665;BME280;49820;33.966;73.390;2023-02-12T17:44:04;79135.34;;;0.12;34.24
63665;BME280;49820;33.966;73.390;2023-02-12T17:46:33;79146.63;;;0.20;33.71
63665;BME280;49820;33.966;73.390;2023-02-12T17:49:03;79152.50;;;0.19;33.12
63665;BME280;49820;33.966;73.390;2023-02-12T17:51:32;79142.63;;;0.15;33.54
63665;BME280;49820;33.966;73.390;2023-02-12T17:54:01;79136.03;;;0.14;33.94
63665;BME280;49820;33.966;73.390;2023-02-12T17:56:31;79132.78;;;0.18;33.15
63665;BME280;49820;33.966;73.390;2023-02-12T17:59:00;79116.47;;;0.25;32.51
63665;BME280;49820;33.966;73.390;2023-02-12T18:01:29;79106.59;;;0.22;31.69
63665;BME280;49820;33.966;73.390;2023-02-12T18:03:59;79101.25;;;0.18;31.24
63665;BME280;49820;33.966;73.390;2023-02-12T18:06:30;79111.16;;;0.19;31.79
63665;BME280;49820;33.966;73.390;2023-02-12T18:08:59;79133.50;;;0.20;33.03
63665;BME280;49820;33.966;73.390;2023-02-12T18:11:31;79130.03;;;0.08;33.43
63665;BME280;49820;33.966;73.390;2023-02-12T18:14:01;79075.75;;;-0.64;34.08
63665;BME280;49820;33.966;73.390;2023-02-12T18:16:32;79098.34;;;-0.47;33.98
63665;BME280;49820;33.966;73.390;2023-02-12T18:19:02;79122.88;;;-0.30;34.40
63665;BME280;49820;33.966;73.390;2023-02-12T18:21:33;79107.34;;;-0.58;35.10
63665;BME280;49820;33.966;73.390;2023-02-12T18:24:04;79104.75;;;-0.56;39.55
63665;BME280;49820;33.966;73.390;2023-02-12T18:26:33;79082.50;;;-0.93;40.88
63665;BME280;49820;33.966;73.390;2023-02-12T18:29:03;79090.63;;;-0.77;38.58
63665;BME280;49820;33.966;73.390;2023-02-12T18:31:32;79087.88;;;-0.45;35.47
63665;BME280;49820;33.966;73.390;2023-02-12T18:34:04;79044.59;;;-0.86;38.24
63665;BME280;49820;33.966;73.390;2023-02-12T18:36:34;79045.50;;;-1.09;37.09
63665;BME280;49820;33.966;73.390;2023-02-12T18:39:03;79084.88;;;-0.27;33.15
63665;BME280;49820;33.966;73.390;2023-02-12T18:41:32;79086.34;;;-0.16;33.98
63665;BME280;49820;33.966;73.390;2023-02-12T18:44:03;79085.25;;;-0.45;36.46
63665;BME280;49820;33.966;73.390;2023-02-12T18:46:34;79043.03;;;-0.61;34.80
63665;BME280;49820;33.966;73.390;2023-02-12T18:49:04;79053.19;;;-0.39;35.05
63665;BME280;49820;33.966;73.390;2023-02-12T18:51:33;79027.47;;;-0.47;31.86
63665;BME280;49820;33.966;73.390;2023-02-12T18:54:10;79051.69;;;-0.52;37.36
63665;BME280;49820;33.966;73.390;2023-02-12T18:56:42;79062.88;;;-0.50;36.73
63665;BME280;49820;33.966;73.390;2023-02-12T18:59:13;79041.28;;;-0.46;34.55
63665;BME280;49820;33.966;73.390;2023-02-12T19:01:45;79053.19;;;-0.39;35.66
63665;BME280;49820;33.966;73.390;2023-02-12T19:04:15;79051.06;;;-0.51;36.54
63665;BME280;49820;33.966;73.390;2023-02-12T19:06:51;79037.22;;;-0.95;38.51
63665;BME280;49820;33.966;73.390;2023-02-12T19:09:22;79046.91;;;-0.64;37.71
63665;BME280;49820;33.966;73.390;2023-02-12T19:11:54;79031.06;;;-1.10;39.97
63665;BME280;49820;33.966;73.390;2023-02-12T19:14:25;79036.00;;;-1.28;40.79
63665;BME280;49820;33.966;73.390;2023-02-12T19:16:55;78985.88;;;-1.86;42.82
63665;BME280;49820;33.966;73.390;2023-02-12T19:19:24;79009.22;;;-1.63;41.25
63665;BME280;49820;33.966;73.390;2023-02-12T19:21:54;79018.91;;;-0.93;34.22
63665;BME280;49820;33.966;73.390;2023-02-12T19:24:23;79025.78;;;-0.28;32.95
63665;BME280;49820;33.966;73.390;2023-02-12T19:27:11;79008.94;;;-0.59;33.00
63665;BME280;49820;33.966;73.390;2023-02-12T19:29:40;79019.16;;;-0.77;35.51
63665;BME280;49820;33.966;73.390;2023-02-12T19:32:09;79022.53;;;-0.70;34.49
63665;BME280;49820;33.966;73.390;2023-02-12T19:34:39;79003.13;;;-0.53;31.90